sensor_id;sensor_type;location;lat;lon;timestamp;pressure;altitude;pressure_sealevel;temperature;humidity
63493;BME280;49638;47.526;10.028;2022-09-01T00:01:14;91857.38;;;11.91;94.19
63493;BME280;49638;47.526;10.028;2022-09-01T00:04:22;91864.38;;;11.80;93.57
63493;BME280;49638;47.526;10.028;2022-09-01T00:07:28;91859.19;;;11.68;93.75
63493;BME280;49638;47.526;10.028;2022-09-01T00:10:33;91859.63;;;11.60;93.93
63493;BME280;49638;47.526;10.028;2022-09-01T00:13:33;91856.78;;;11.67;94.36
63493;BME280;49638;47.526;10.028;2022-09-01T00:16:34;91853.97;;;11.73;94.69
63493;BME280;49638;47.526;10.028;2022-09-01T00:19:35;91855.63;;;11.79;94.67
63493;BME280;49638;47.526;10.028;2022-09-01T00:22:36;91848.22;;;11.81;94.71
63493;BME280;49638;47.526;10.028;2022-09-01T00:25:36;91850.47;;;11.90;94.56
63493;BME280;49638;47.526;10.028;2022-09-01T00:28:38;91851.59;;;11.94;94.45
63493;BME280;49638;47.526;10.028;2022-09-01T00:31:38;91845.19;;;11.90;94.70
63493;BME280;49638;47.526;10.028;2022-09-01T00:34:40;91852.56;;;11.88;94.55
63493;BME280;49638;47.526;10.028;2022-09-01T00:37:40;91847.91;;;11.78;94.95
63493;BME280;49638;47.526;10.028;2022-09-01T00:40:41;91844.78;;;11.81;95.10
63493;BME280;49638;47.526;10.028;2022-09-01T00:46:50;91845.19;;;11.90;95.06
63493;BME280;49638;47.526;10.028;2022-09-01T00:49:52;91843.63;;;11.94;94.96
63493;BME280;49638;47.526;10.028;2022-09-01T00:52:53;91832.19;;;11.88;94.91
63493;BME280;49638;47.526;10.028;2022-09-01T00:55:55;91836.75;;;11.93;94.96
63493;BME280;49638;47.526;10.028;2022-09-01T00:58:55;91838.91;;;11.96;95.02
63493;BME280;49638;47.526;10.028;2022-09-01T01:01:56;91839.22;;;11.99;95.05
63493;BME280;49638;47.526;10.028;2022-09-01T01:04:57;91838.94;;;12.01;95.28
63493;BME280;49638;47.526;10.028;2022-09-01T01:07:59;91831.25;;;11.99;94.78
63493;BME280;49638;47.526;10.028;2022-09-01T01:11:06;91832.84;;;12.00;95.11
63493;BME280;49638;47.526;10.028;2022-09-01T01:14:08;91835.72;;;11.99;95.04
63493;BME280;49638;47.526;10.028;2022-09-01T01:17:11;91828.81;;;11.93;95.03
63493;BME280;49638;47.526;10.028;2022-09-01T01:20:14;91831.75;;;11.96;95.12
63493;BME280;49638;47.526;10.028;2022-09-01T01:23:56;91826.16;;;11.93;95.43
63493;BME280;49638;47.526;10.028;2022-09-01T01:27:01;91819.72;;;11.89;94.75
63493;BME280;49638;47.526;10.028;2022-09-01T01:30:04;91817.75;;;11.79;95.01
63493;BME280;49638;47.526;10.028;2022-09-01T01:33:07;91812.78;;;11.82;95.04
63493;BME280;49638;47.526;10.028;2022-09-01T01:36:10;91803.31;;;11.87;94.99
63493;BME280;49638;47.526;10.028;2022-09-01T01:39:15;91806.25;;;11.90;94.90
63493;BME280;49638;47.526;10.028;2022-09-01T01:42:16;91809.41;;;11.87;94.63
63493;BME280;49638;47.526;10.028;2022-09-01T01:45:19;91809.34;;;11.82;94.64
63493;BME280;49638;47.526;10.028;2022-09-01T01:48:21;91800.44;;;11.71;94.78
63493;BME280;49638;47.526;10.028;2022-09-01T01:51:22;91803.59;;;11.68;94.87
63493;BME280;49638;47.526;10.028;2022-09-01T01:54:27;91804.72;;;11.72;94.79
63493;BME280;49638;47.526;10.028;2022-09-01T01:57:31;91804.22;;;11.75;94.69
63493;BME280;49638;47.526;10.028;2022-09-01T02:00:32;91815.13;;;11.79;94.34
63493;BME280;49638;47.526;10.028;2022-09-01T02:03:33;91811.66;;;11.78;94.36
63493;BME280;49638;47.526;10.028;2022-09-01T02:06:37;91804.63;;;11.67;94.35
63493;BME280;49638;47.526;10.028;2022-09-01T02:09:44;91819.53;;;11.73;94.54
63493;BME280;49638;47.526;10.028;2022-09-01T02:12:47;91818.25;;;11.76;94.66
63493;BME280;49638;47.526;10.028;2022-09-01T02:15:50;91822.50;;;11.77;94.46
63493;BME280;49638;47.526;10.028;2022-09-01T02:18:53;91818.78;;;11.78;94.47
63493;BME280;49638;47.526;10.028;2022-09-01T02:21:53;91808.94;;;11.73;94.36
63493;BME280;49638;47.526;10.028;2022-09-01T02:24:55;91810.00;;;11.72;94.30
63493;BME280;49638;47.526;10.028;2022-09-01T02:27:56;91805.44;;;11.68;94.35
63493;BME280;49638;47.526;10.028;2022-09-01T02:30:57;91821.63;;;11.71;94.23
63493;BME280;49638;47.526;10.028;2022-09-01T02:33:58;91813.16;;;11.69;94.25
63493;BME280;49638;47.526;10.028;2022-09-01T02:37:00;91813.88;;;11.65;94.60
63493;BME280;49638;47.526;10.028;2022-09-01T02:40:00;91814.31;;;11.56;94.26
63493;BME280;49638;47.526;10.028;2022-09-01T02:43:01;91811.59;;;11.51;94.29
63493;BME280;49638;47.526;10.028;2022-09-01T02:46:02;91815.53;;;11.49;94.18
63493;BME280;49638;47.526;10.028;2022-09-01T02:49:02;91806.81;;;11.48;94.31
63493;BME280;49638;47.526;10.028;2022-09-01T02:52:04;91814.50;;;11.50;94.35
63493;BME280;49638;47.526;10.028;2022-09-01T02:55:07;91807.03;;;11.47;94.35
63493;BME280;49638;47.526;10.028;2022-09-01T02:58:08;91791.34;;;11.40;94.42
63493;BME280;49638;47.526;10.028;2022-09-01T03:01:21;91798.13;;;11.53;94.85
63493;BME280;49638;47.526;10.028;2022-09-01T03:04:23;91791.72;;;11.49;94.51
63493;BME280;49638;47.526;10.028;2022-09-01T03:07:26;91794.41;;;11.54;94.46
63493;BME280;49638;47.526;10.028;2022-09-01T03:10:30;91788.09;;;11.55;94.36
63493;BME280;49638;47.526;10.028;2022-09-01T03:13:32;91786.97;;;11.51;94.11
63493;BME280;49638;47.526;10.028;2022-09-01T03:16:32;91790.09;;;11.48;93.95
63493;BME280;49638;47.526;10.028;2022-09-01T03:19:32;91787.41;;;11.43;93.98
63493;BME280;49638;47.526;10.028;2022-09-01T03:22:39;91779.59;;;11.31;94.08
63493;BME280;49638;47.526;10.028;2022-09-01T03:25:40;91785.44;;;11.33;94.29
63493;BME280;49638;47.526;10.028;2022-09-01T03:28:41;91780.94;;;11.33;94.37
63493;BME280;49638;47.526;10.028;2022-09-01T03:31:41;91782.00;;;11.32;94.42
63493;BME280;49638;47.526;10.028;2022-09-01T03:34:41;91772.88;;;11.23;94.55
63493;BME280;49638;47.526;10.028;2022-09-01T03:37:42;91773.94;;;11.22;94.81
63493;BME280;49638;47.526;10.028;2022-09-01T03:40:43;91777.69;;;11.26;94.66
63493;BME280;49638;47.526;10.028;2022-09-01T03:43:45;91772.09;;;11.23;94.27
63493;BME280;49638;47.526;10.028;2022-09-01T03:46:46;91759.13;;;11.21;94.20
63493;BME280;49638;47.526;10.028;2022-09-01T03:49:47;91773.97;;;11.27;94.18
63493;BME280;49638;47.526;10.028;2022-09-01T03:52:57;91773.19;;;11.27;94.26
63493;BME280;49638;47.526;10.028;2022-09-01T03:55:58;91767.06;;;11.21;94.27
63493;BME280;49638;47.526;10.028;2022-09-01T03:58:59;91773.19;;;11.27;94.43
63493;BME280;49638;47.526;10.028;2022-09-01T04:01:59;91766.56;;;11.24;94.49
63493;BME280;49638;47.526;10.028;2022-09-01T04:05:01;91775.28;;;11.25;94.50
63493;BME280;49638;47.526;10.028;2022-09-01T04:08:04;91782.75;;;11.28;94.54
63493;BME280;49638;47.526;10.028;2022-09-01T04:11:15;91773.75;;;11.29;94.86
63493;BME280;49638;47.526;10.028;2022-09-01T04:14:17;91778.47;;;11.27;94.43
63493;BME280;49638;47.526;10.028;2022-09-01T04:17:18;91770.50;;;11.22;94.17
63493;BME280;49638;47.526;10.028;2022-09-01T04:20:41;91778.97;;;11.24;94.26
63493;BME280;49638;47.526;10.028;2022-09-01T04:23:47;91775.47;;;11.18;94.32
63493;BME280;49638;47.526;10.028;2022-09-01T04:26:48;91776.75;;;11.16;94.22
63493;BME280;49638;47.526;10.028;2022-09-01T04:29:49;91777.31;;;11.18;94.43
63493;BME280;49638;47.526;10.028;2022-09-01T04:32:50;91778.84;;;11.13;94.05
63493;BME280;49638;47.526;10.028;2022-09-01T04:35:51;91777.72;;;11.09;94.22
63493;BME280;49638;47.526;10.028;2022-09-01T04:38:58;91768.91;;;11.04;94.29
63493;BME280;49638;47.526;10.028;2022-09-01T04:41:59;91762.22;;;10.96;94.51
63493;BME280;49638;47.526;10.028;2022-09-01T04:45:03;91778.47;;;11.05;94.33
63493;BME280;49638;47.526;10.028;2022-09-01T04:48:04;91772.13;;;11.06;94.19
63493;BME280;49638;47.526;10.028;2022-09-01T04:51:08;91772.38;;;11.04;94.35
63493;BME280;49638;47.526;10.028;2022-09-01T04:54:11;91768.44;;;11.07;94.44
63493;BME280;49638;47.526;10.028;2022-09-01T04:57:13;91763.13;;;11.07;94.06
63493;BME280;49638;47.526;10.028;2022-09-01T05:00:19;91764.94;;;11.01;94.37
63493;BME280;49638;47.526;10.028;2022-09-01T05:03:22;91772.91;;;11.06;94.66
63493;BME280;49638;47.526;10.028;2022-09-01T05:06:23;91779.84;;;11.07;94.91
63493;BME280;49638;47.526;10.028;2022-09-01T05:09:24;91778.78;;;11.08;94.46
63493;BME280;49638;47.526;10.028;2022-09-01T05:12:24;91781.72;;;11.12;94.80
63493;BME280;49638;47.526;10.028;2022-09-01T05:15:26;91772.75;;;11.13;95.00
63493;BME280;49638;47.526;10.028;2022-09-01T05:18:27;91774.72;;;11.23;94.94
63493;BME280;49638;47.526;10.028;2022-09-01T05:21:28;91778.44;;;11.22;94.86
63493;BME280;49638;47.526;10.028;2022-09-01T05:24:29;91781.19;;;11.32;94.56
63493;BME280;49638;47.526;10.028;2022-09-01T05:27:31;91784.31;;;11.51;94.44
63493;BME280;49638;47.526;10.028;2022-09-01T05:30:32;91786.91;;;11.68;94.67
63493;BME280;49638;47.526;10.028;2022-09-01T05:33:35;91783.81;;;11.98;94.04
63493;BME280;49638;47.526;10.028;2022-09-01T05:36:40;91786.25;;;12.31;93.40
63493;BME280;49638;47.526;10.028;2022-09-01T05:39:40;91784.94;;;12.61;92.79
63493;BME280;49638;47.526;10.028;2022-09-01T05:42:42;91786.50;;;12.94;92.02
63493;BME280;49638;47.526;10.028;2022-09-01T05:45:42;91793.03;;;13.19;91.42
63493;BME280;49638;47.526;10.028;2022-09-01T05:48:44;91783.63;;;13.43;90.77
63493;BME280;49638;47.526;10.028;2022-09-01T05:51:47;91781.84;;;13.59;90.40
63493;BME280;49638;47.526;10.028;2022-09-01T05:54:52;91765.94;;;13.69;90.10
63493;BME280;49638;47.526;10.028;2022-09-01T05:57:52;91767.28;;;13.82;89.67
63493;BME280;49638;47.526;10.028;2022-09-01T06:00:54;91776.34;;;13.86;89.25
63493;BME280;49638;47.526;10.028;2022-09-01T06:03:59;91773.47;;;14.03;89.22
63493;BME280;49638;47.526;10.028;2022-09-01T06:06:59;91777.25;;;14.28;88.15
63493;BME280;49638;47.526;10.028;2022-09-01T06:09:59;91785.22;;;14.43;87.62
63493;BME280;49638;47.526;10.028;2022-09-01T06:13:00;91785.28;;;14.53;87.28
63493;BME280;49638;47.526;10.028;2022-09-01T06:16:01;91787.16;;;14.68;87.14
63493;BME280;49638;47.526;10.028;2022-09-01T06:19:02;91783.13;;;14.91;86.34
63493;BME280;49638;47.526;10.028;2022-09-01T06:22:04;91776.22;;;15.05;86.25
63493;BME280;49638;47.526;10.028;2022-09-01T06:25:05;91776.47;;;15.19;85.83
63493;BME280;49638;47.526;10.028;2022-09-01T06:28:07;91770.84;;;15.31;85.27
63493;BME280;49638;47.526;10.028;2022-09-01T06:31:12;91784.63;;;15.53;84.81
63493;BME280;49638;47.526;10.028;2022-09-01T06:34:14;91784.09;;;15.67;84.14
63493;BME280;49638;47.526;10.028;2022-09-01T06:37:17;91773.41;;;15.72;83.83
63493;BME280;49638;47.526;10.028;2022-09-01T06:40:21;91781.06;;;15.89;83.19
63493;BME280;49638;47.526;10.028;2022-09-01T06:43:24;91775.78;;;15.83;82.65
63493;BME280;49638;47.526;10.028;2022-09-01T06:46:24;91790.63;;;15.95;82.30
63493;BME280;49638;47.526;10.028;2022-09-01T06:49:27;91775.97;;;15.92;82.16
63493;BME280;49638;47.526;10.028;2022-09-01T06:52:33;91786.63;;;15.97;82.51
63493;BME280;49638;47.526;10.028;2022-09-01T06:55:34;91780.53;;;15.92;82.53
63493;BME280;49638;47.526;10.028;2022-09-01T06:58:36;91790.44;;;15.76;82.83
63493;BME280;49638;47.526;10.028;2022-09-01T07:01:38;91779.84;;;15.50;84.24
63493;BME280;49638;47.526;10.028;2022-09-01T07:04:38;91798.25;;;15.36;83.86
63493;BME280;49638;47.526;10.028;2022-09-01T07:07:46;91785.19;;;15.35;83.70
63493;BME280;49638;47.526;10.028;2022-09-01T07:10:50;91801.69;;;15.52;83.48
63493;BME280;49638;47.526;10.028;2022-09-01T07:13:53;91795.81;;;15.55;83.71
63493;BME280;49638;47.526;10.028;2022-09-01T07:16:54;91797.94;;;15.64;83.25
63493;BME280;49638;47.526;10.028;2022-09-01T07:19:54;91796.31;;;15.83;82.87
63493;BME280;49638;47.526;10.028;2022-09-01T07:22:56;91801.63;;;15.83;82.99
63493;BME280;49638;47.526;10.028;2022-09-01T07:25:56;91798.97;;;15.78;83.31
63493;BME280;49638;47.526;10.028;2022-09-01T07:28:58;91802.47;;;15.73;83.17
63493;BME280;49638;47.526;10.028;2022-09-01T07:31:58;91795.53;;;15.62;83.63
63493;BME280;49638;47.526;10.028;2022-09-01T07:34:59;91817.66;;;15.57;83.26
63493;BME280;49638;47.526;10.028;2022-09-01T07:37:59;91807.56;;;15.49;83.36
63493;BME280;49638;47.526;10.028;2022-09-01T07:40:59;91822.19;;;15.52;83.18
63493;BME280;49638;47.526;10.028;2022-09-01T07:44:00;91821.38;;;15.51;83.38
63493;BME280;49638;47.526;10.028;2022-09-01T07:47:01;91818.25;;;15.39;83.71
63493;BME280;49638;47.526;10.028;2022-09-01T07:50:05;91821.97;;;15.33;83.80
63493;BME280;49638;47.526;10.028;2022-09-01T07:53:07;91823.59;;;15.29;83.98
63493;BME280;49638;47.526;10.028;2022-09-01T07:56:09;91820.13;;;15.23;83.98
63493;BME280;49638;47.526;10.028;2022-09-01T07:59:10;91837.94;;;15.33;84.34
63493;BME280;49638;47.526;10.028;2022-09-01T08:02:10;91837.41;;;15.36;83.81
63493;BME280;49638;47.526;10.028;2022-09-01T08:05:14;91838.47;;;15.35;83.68
63493;BME280;49638;47.526;10.028;2022-09-01T08:08:16;91837.41;;;15.36;83.97
63493;BME280;49638;47.526;10.028;2022-09-01T08:11:23;91837.66;;;15.34;84.01
63493;BME280;49638;47.526;10.028;2022-09-01T08:14:24;91837.41;;;15.31;84.00
63493;BME280;49638;47.526;10.028;2022-09-01T08:17:24;91844.59;;;15.35;84.09
63493;BME280;49638;47.526;10.028;2022-09-01T08:20:25;91843.78;;;15.45;83.53
63493;BME280;49638;47.526;10.028;2022-09-01T08:23:25;91844.03;;;15.54;83.00
63493;BME280;49638;47.526;10.028;2022-09-01T08:26:26;91854.41;;;15.60;83.13
63493;BME280;49638;47.526;10.028;2022-09-01T08:29:26;91848.53;;;15.58;82.82
63493;BME280;49638;47.526;10.028;2022-09-01T08:32:27;91844.28;;;15.63;82.62
63493;BME280;49638;47.526;10.028;2022-09-01T08:35:27;91841.34;;;15.64;82.51
63493;BME280;49638;47.526;10.028;2022-09-01T08:38:28;91843.22;;;15.69;82.70
63493;BME280;49638;47.526;10.028;2022-09-01T08:41:40;91854.34;;;15.91;81.74
63493;BME280;49638;47.526;10.028;2022-09-01T08:57:44;91861.09;;;16.38;80.89
63493;BME280;49638;47.526;10.028;2022-09-01T09:00:52;91858.41;;;16.43;79.85
63493;BME280;49638;47.526;10.028;2022-09-01T09:07:17;91852.75;;;16.50;79.50
63493;BME280;49638;47.526;10.028;2022-09-01T09:10:37;91854.34;;;16.56;79.77
63493;BME280;49638;47.526;10.028;2022-09-01T09:16:53;91857.03;;;16.51;80.58
63493;BME280;49638;47.526;10.028;2022-09-01T09:19:54;91859.72;;;16.51;80.83
63493;BME280;49638;47.526;10.028;2022-09-01T09:22:54;91854.34;;;16.56;80.81
63493;BME280;49638;47.526;10.028;2022-09-01T09:25:55;91840.72;;;16.58;80.44
63493;BME280;49638;47.526;10.028;2022-09-01T09:28:56;91849.78;;;16.62;80.07
63493;BME280;49638;47.526;10.028;2022-09-01T09:32:06;91847.59;;;16.64;78.57
63493;BME280;49638;47.526;10.028;2022-09-01T09:35:27;91847.59;;;16.64;77.37
63493;BME280;49638;47.526;10.028;2022-09-01T09:38:30;91833.97;;;16.70;79.30
63493;BME280;49638;47.526;10.028;2022-09-01T09:41:32;91834.72;;;16.81;79.62
63493;BME280;49638;47.526;10.028;2022-09-01T09:44:32;91837.84;;;16.93;79.51
63493;BME280;49638;47.526;10.028;2022-09-01T09:47:37;91833.50;;;17.02;79.31
63493;BME280;49638;47.526;10.028;2022-09-01T09:50:39;91827.84;;;17.09;78.95
63493;BME280;49638;47.526;10.028;2022-09-01T09:53:42;91826.44;;;17.17;78.33
63493;BME280;49638;47.526;10.028;2022-09-01T09:56:42;91822.19;;;17.16;77.92
63493;BME280;49638;47.526;10.028;2022-09-01T09:59:48;91825.25;;;17.28;77.30
63493;BME280;49638;47.526;10.028;2022-09-01T10:02:57;91827.91;;;17.33;76.67
63493;BME280;49638;47.526;10.028;2022-09-01T10:05:58;91827.44;;;17.26;76.65
63493;BME280;49638;47.526;10.028;2022-09-01T10:09:02;91833.84;;;17.25;75.90
63493;BME280;49638;47.526;10.028;2022-09-01T10:12:04;91825.25;;;17.28;76.49
63493;BME280;49638;47.526;10.028;2022-09-01T10:15:07;91827.16;;;17.27;76.58
63493;BME280;49638;47.526;10.028;2022-09-01T10:18:12;91831.41;;;17.29;76.36
63493;BME280;49638;47.526;10.028;2022-09-01T10:21:17;91831.59;;;17.37;76.76
63493;BME280;49638;47.526;10.028;2022-09-01T10:24:29;91831.06;;;17.35;74.84
63493;BME280;49638;47.526;10.028;2022-09-01T10:27:40;91824.91;;;17.40;75.50
63493;BME280;49638;47.526;10.028;2022-09-01T10:30:44;91824.63;;;17.41;76.29
63493;BME280;49638;47.526;10.028;2022-09-01T10:33:46;91825.41;;;17.42;76.67
63493;BME280;49638;47.526;10.028;2022-09-01T10:36:47;91827.34;;;17.36;76.49
63493;BME280;49638;47.526;10.028;2022-09-01T10:40:08;91827.56;;;17.40;74.39
63493;BME280;49638;47.526;10.028;2022-09-01T10:46:49;91830.69;;;17.18;73.63
63493;BME280;49638;47.526;10.028;2022-09-01T10:53:03;91821.72;;;17.09;73.85
63493;BME280;49638;47.526;10.028;2022-09-01T10:56:09;91820.00;;;17.18;75.21
63493;BME280;49638;47.526;10.028;2022-09-01T10:59:24;91833.34;;;17.23;73.92
63493;BME280;49638;47.526;10.028;2022-09-01T11:02:25;91820.72;;;17.29;75.73
63493;BME280;49638;47.526;10.028;2022-09-01T11:05:25;91828.41;;;17.35;75.44
63493;BME280;49638;47.526;10.028;2022-09-01T11:11:35;91819.81;;;17.38;74.93
63493;BME280;49638;47.526;10.028;2022-09-01T11:14:47;91829.13;;;17.46;74.24
63493;BME280;49638;47.526;10.028;2022-09-01T11:20:51;91826.47;;;17.46;74.86
63493;BME280;49638;47.526;10.028;2022-09-01T11:31:12;91829.16;;;17.41;72.60
63493;BME280;49638;47.526;10.028;2022-09-01T11:34:17;91830.50;;;17.38;74.35
63493;BME280;49638;47.526;10.028;2022-09-01T11:37:21;91825.41;;;17.42;74.50
63493;BME280;49638;47.526;10.028;2022-09-01T11:40:28;91813.38;;;17.44;73.78
63493;BME280;49638;47.526;10.028;2022-09-01T11:43:29;91824.50;;;17.52;74.71
63493;BME280;49638;47.526;10.028;2022-09-01T11:46:32;91817.81;;;17.54;74.24
63493;BME280;49638;47.526;10.028;2022-09-01T11:49:38;91819.13;;;17.57;73.89
63493;BME280;49638;47.526;10.028;2022-09-01T11:52:39;91824.97;;;17.59;74.43
63493;BME280;49638;47.526;10.028;2022-09-01T11:55:48;91820.16;;;17.61;73.10
63493;BME280;49638;47.526;10.028;2022-09-01T11:58:49;91818.81;;;17.63;74.28
63493;BME280;49638;47.526;10.028;2022-09-01T12:01:56;91818.28;;;17.61;73.15
63493;BME280;49638;47.526;10.028;2022-09-01T12:04:56;91826.81;;;17.63;74.21
63493;BME280;49638;47.526;10.028;2022-09-01T12:07:59;91821.19;;;17.65;74.40
63493;BME280;49638;47.526;10.028;2022-09-01T12:11:18;91828.84;;;17.71;72.46
63493;BME280;49638;47.526;10.028;2022-09-01T12:14:21;91827.22;;;17.76;73.93
63493;BME280;49638;47.526;10.028;2022-09-01T12:17:21;91826.41;;;17.80;73.21
63493;BME280;49638;47.526;10.028;2022-09-01T12:20:29;91819.91;;;17.86;73.05
63493;BME280;49638;47.526;10.028;2022-09-01T12:23:36;91828.16;;;17.90;72.02
63493;BME280;49638;47.526;10.028;2022-09-01T12:26:37;91821.16;;;17.94;72.89
63493;BME280;49638;47.526;10.028;2022-09-01T12:29:38;91818.44;;;17.99;72.93
63493;BME280;49638;47.526;10.028;2022-09-01T12:32:39;91834.34;;;18.09;72.80
63493;BME280;49638;47.526;10.028;2022-09-01T12:35:39;91830.34;;;18.07;72.25
63493;BME280;49638;47.526;10.028;2022-09-01T12:38:40;91838.91;;;18.09;71.88
63493;BME280;49638;47.526;10.028;2022-09-01T12:41:40;91821.84;;;18.05;71.86
63493;BME280;49638;47.526;10.028;2022-09-01T12:44:44;91831.19;;;18.07;71.28
63493;BME280;49638;47.526;10.028;2022-09-01T12:47:47;91825.00;;;18.07;71.90
63493;BME280;49638;47.526;10.028;2022-09-01T12:50:48;91825.53;;;18.09;71.25
63493;BME280;49638;47.526;10.028;2022-09-01T12:53:58;91837.31;;;18.08;68.93
63493;BME280;49638;47.526;10.028;2022-09-01T12:56:59;91829.00;;;18.09;71.14
63493;BME280;49638;47.526;10.028;2022-09-01T13:03:17;91820.13;;;18.14;71.63
63493;BME280;49638;47.526;10.028;2022-09-01T13:06:18;91828.03;;;18.24;71.43
63493;BME280;49638;47.526;10.028;2022-09-01T13:09:19;91828.53;;;18.26;71.20
63493;BME280;49638;47.526;10.028;2022-09-01T13:12:20;91826.72;;;18.22;71.22
63493;BME280;49638;47.526;10.028;2022-09-01T13:15:20;91828.66;;;18.16;70.67
63493;BME280;49638;47.526;10.028;2022-09-01T13:18:23;91829.00;;;18.09;70.78
63493;BME280;49638;47.526;10.028;2022-09-01T13:21:23;91826.41;;;18.04;71.59
63493;BME280;49638;47.526;10.028;2022-09-01T13:24:24;91813.81;;;18.05;71.12
63493;BME280;49638;47.526;10.028;2022-09-01T13:27:25;91816.28;;;18.01;71.17
63493;BME280;49638;47.526;10.028;2022-09-01T13:30:25;91818.28;;;17.90;71.22
63493;BME280;49638;47.526;10.028;2022-09-01T13:33:28;91817.28;;;17.81;71.10
63493;BME280;49638;47.526;10.028;2022-09-01T13:36:29;91825.84;;;17.83;71.21
63493;BME280;49638;47.526;10.028;2022-09-01T13:39:30;91805.03;;;17.80;71.36
63493;BME280;49638;47.526;10.028;2022-09-01T13:42:30;91818.38;;;17.80;71.39
63493;BME280;49638;47.526;10.028;2022-09-01T13:45:30;91808.50;;;17.76;70.96
63493;BME280;49638;47.526;10.028;2022-09-01T13:48:30;91801.03;;;17.72;70.96
63493;BME280;49638;47.526;10.028;2022-09-01T13:51:34;91814.09;;;17.79;71.02
63493;BME280;49638;47.526;10.028;2022-09-01T13:54:35;91808.97;;;17.83;71.08
63493;BME280;49638;47.526;10.028;2022-09-01T13:57:36;91816.16;;;17.87;70.77
63493;BME280;49638;47.526;10.028;2022-09-01T14:00:38;91795.34;;;17.84;70.08
63493;BME280;49638;47.526;10.028;2022-09-01T14:03:39;91811.38;;;17.84;70.51
63493;BME280;49638;47.526;10.028;2022-09-01T14:06:40;91799.94;;;17.79;70.22
63493;BME280;49638;47.526;10.028;2022-09-01T14:09:40;91799.97;;;17.73;70.40
63493;BME280;49638;47.526;10.028;2022-09-01T14:12:41;91800.25;;;17.77;70.33
63493;BME280;49638;47.526;10.028;2022-09-01T14:15:42;91791.13;;;17.78;70.22
63493;BME280;49638;47.526;10.028;2022-09-01T14:18:43;91803.97;;;17.76;70.42
63493;BME280;49638;47.526;10.028;2022-09-01T14:21:43;91795.47;;;17.69;70.21
63493;BME280;49638;47.526;10.028;2022-09-01T14:24:44;91792.88;;;17.64;70.26
63493;BME280;49638;47.526;10.028;2022-09-01T14:27:44;91794.44;;;17.65;70.41
63493;BME280;49638;47.526;10.028;2022-09-01T14:30:46;91792.31;;;17.67;70.19
63493;BME280;49638;47.526;10.028;2022-09-01T14:33:47;91792.34;;;17.62;70.09
63493;BME280;49638;47.526;10.028;2022-09-01T14:36:48;91782.78;;;17.56;70.12
63493;BME280;49638;47.526;10.028;2022-09-01T14:39:54;91792.13;;;17.58;69.71
63493;BME280;49638;47.526;10.028;2022-09-01T14:42:54;91786.84;;;17.53;69.93
63493;BME280;49638;47.526;10.028;2022-09-01T14:46:06;91789.22;;;17.55;68.74
63493;BME280;49638;47.526;10.028;2022-09-01T14:49:09;91783.59;;;17.56;70.33
63493;BME280;49638;47.526;10.028;2022-09-01T14:52:10;91785.75;;;17.54;70.18
63493;BME280;49638;47.526;10.028;2022-09-01T14:55:12;91791.88;;;17.55;70.38
63493;BME280;49638;47.526;10.028;2022-09-01T14:58:13;91787.66;;;17.48;70.29
63493;BME280;49638;47.526;10.028;2022-09-01T15:01:15;91792.53;;;17.46;70.09
63493;BME280;49638;47.526;10.028;2022-09-01T15:04:15;91765.38;;;17.34;70.16
63493;BME280;49638;47.526;10.028;2022-09-01T15:07:16;91790.97;;;17.40;70.09
63493;BME280;49638;47.526;10.028;2022-09-01T15:10:19;91783.22;;;17.39;70.30
63493;BME280;49638;47.526;10.028;2022-09-01T15:13:20;91775.50;;;17.37;67.66
63493;BME280;49638;47.526;10.028;2022-09-01T15:16:23;91784.84;;;17.40;70.32
63493;BME280;49638;47.526;10.028;2022-09-01T15:19:24;91780.84;;;17.37;70.03
63493;BME280;49638;47.526;10.028;2022-09-01T15:22:24;91774.47;;;17.33;70.26
63493;BME280;49638;47.526;10.028;2022-09-01T15:25:25;91781.63;;;17.38;70.19
63493;BME280;49638;47.526;10.028;2022-09-01T15:28:25;91788.66;;;17.29;70.20
63493;BME280;49638;47.526;10.028;2022-09-01T15:31:26;91783.63;;;17.27;70.23
63493;BME280;49638;47.526;10.028;2022-09-01T15:34:28;91786.06;;;17.23;69.81
63493;BME280;49638;47.526;10.028;2022-09-01T15:37:28;91775.41;;;17.18;70.14
63493;BME280;49638;47.526;10.028;2022-09-01T15:40:29;91771.44;;;17.16;69.99
63493;BME280;49638;47.526;10.028;2022-09-01T15:43:29;91775.69;;;17.17;69.63
63493;BME280;49638;47.526;10.028;2022-09-01T15:46:30;91774.38;;;17.14;69.92
63493;BME280;49638;47.526;10.028;2022-09-01T15:49:31;91774.72;;;17.08;69.74
63493;BME280;49638;47.526;10.028;2022-09-01T15:52:32;91782.16;;;17.11;70.11
63493;BME280;49638;47.526;10.028;2022-09-01T15:55:45;91786.47;;;17.07;68.92
63493;BME280;49638;47.526;10.028;2022-09-01T15:58:46;91779.81;;;17.04;70.18
63493;BME280;49638;47.526;10.028;2022-09-01T16:01:47;91773.97;;;17.02;70.40
63493;BME280;49638;47.526;10.028;2022-09-01T16:04:47;91783.03;;;17.01;70.19
63493;BME280;49638;47.526;10.028;2022-09-01T16:07:49;91774.28;;;16.95;70.31
63493;BME280;49638;47.526;10.028;2022-09-01T16:10:49;91777.78;;;16.91;70.42
63493;BME280;49638;47.526;10.028;2022-09-01T16:13:50;91780.22;;;16.87;70.45
63493;BME280;49638;47.526;10.028;2022-09-01T16:17:03;91771.25;;;16.78;70.20
63493;BME280;49638;47.526;10.028;2022-09-01T16:20:11;91772.81;;;16.74;69.56
63493;BME280;49638;47.526;10.028;2022-09-01T16:23:15;91774.19;;;16.71;70.30
63493;BME280;49638;47.526;10.028;2022-09-01T16:26:18;91773.13;;;16.67;70.45
63493;BME280;49638;47.526;10.028;2022-09-01T16:29:46;91771.31;;;16.63;68.51
63493;BME280;49638;47.526;10.028;2022-09-01T16:32:48;91769.72;;;16.62;70.57
63493;BME280;49638;47.526;10.028;2022-09-01T16:36:06;91764.94;;;16.59;70.16
63493;BME280;49638;47.526;10.028;2022-09-01T16:45:45;91760.75;;;16.47;69.92
63493;BME280;49638;47.526;10.028;2022-09-01T16:52:02;91773.00;;;16.48;69.75